»·PEaware :: UAL1978 KLAS-KLAX

UAL1978 :: KLAS-KLAX

FLIGHT INFORMATION

Flight Status: Arrived
Operator:
United Airlines
More flights by this operator :: More flights under this callsign
Pilot: Kyle M. (9350)
Aircraft: AIRBUS A319
(A319)
More flights by this aircraft type
Origin: KLAS McCarran Intl
United States
Destination: KLAX Los Angeles Intl
United States
More flights between these airports :: More routes between these airports
Route: BOACH8 RIKII SHTNR ANJLL4
File this flight plan on PilotEdge
Remarks: CptCanada - Youtube Livestreams!
Altitude:
(Current/Filed)
30,000ft
Speed:
(Current/Filed)
450kts
Departed: 03-Dec-18 03:47 PM
Arrived: 03-Dec-18 04:30 PM
Distance/Time
Traveled:
205nm/0:43
Distance/Time
To Go:
Arrived

Flight Plot

Page will automatically refresh every two minutes.

Flight plan parsing failed; only flown route is shown


Map Options




Map Legend


Flown Route
Filed Route
Departure Airport
Arrival Airport
Navaid (VOR, NDB)
Fix

Horizontal Profiles

Position Reports

Time Latitude Longitude Heading Altitude Ground
Speed
03-Dec-18 15:05 36.082932 -115.138772 226 2120ft 0kts
03-Dec-18 15:06 36.082932 -115.138772 226 2120ft 0kts
03-Dec-18 15:07 36.082932 -115.138772 226 2120ft 0kts
03-Dec-18 15:08 36.082932 -115.138772 226 2120ft 0kts
03-Dec-18 15:09 36.082932 -115.138772 226 2120ft 0kts
03-Dec-18 15:10 36.082932 -115.138772 226 2120ft 0kts
03-Dec-18 15:11 36.082932 -115.138772 226 2120ft 0kts
03-Dec-18 15:12 36.082932 -115.138772 226 2120ft 0kts
03-Dec-18 15:13 36.082932 -115.138772 226 2120ft 0kts
03-Dec-18 15:14 36.082932 -115.138772 226 2120ft 0kts
03-Dec-18 15:15 36.082932 -115.138772 226 2120ft 0kts
03-Dec-18 15:16 36.082932 -115.138772 226 2120ft 0kts
03-Dec-18 15:17 36.082932 -115.138772 226 2120ft 0kts
03-Dec-18 15:18 36.082932 -115.138772 226 2120ft 0kts
03-Dec-18 15:19 36.082932 -115.138772 226 2120ft 0kts
03-Dec-18 15:20 36.082932 -115.138772 226 2120ft 0kts
03-Dec-18 15:21 36.082932 -115.138772 226 2120ft 0kts
03-Dec-18 15:22 36.082932 -115.138772 226 2120ft 0kts
03-Dec-18 15:23 36.082932 -115.138772 226 2120ft 0kts
03-Dec-18 15:24 36.082932 -115.138772 226 2120ft 0kts
03-Dec-18 15:25 36.082932 -115.138772 226 2120ft 0kts
03-Dec-18 15:26 36.082932 -115.138772 226 2120ft 0kts
03-Dec-18 15:27 36.082932 -115.138772 226 2120ft 0kts
03-Dec-18 15:28 36.082932 -115.138772 226 2120ft 0kts
03-Dec-18 15:29 36.082932 -115.138772 226 2120ft 0kts
03-Dec-18 15:30 36.082932 -115.138772 226 2120ft 0kts
03-Dec-18 15:31 36.082932 -115.138772 226 2120ft 0kts
03-Dec-18 15:32 36.082932 -115.138772 226 2120ft 0kts
03-Dec-18 15:33 36.083058 -115.138612 223 2120ft 2kts
03-Dec-18 15:34 36.083543 -115.138173 208 2120ft 2kts
03-Dec-18 15:35 36.084076 -115.137839 227 2120ft 2kts
03-Dec-18 15:36 36.084207 -115.137398 270 2120ft 0kts
03-Dec-18 15:37 36.084207 -115.137398 270 2120ft 0kts
03-Dec-18 15:38 36.083778 -115.141042 225 2120ft 17kts
03-Dec-18 15:39 36.080489 -115.142485 181 2120ft 0kts
03-Dec-18 15:40 36.078236 -115.141920 93 2120ft 12kts
03-Dec-18 15:41 36.078242 -115.136317 89 2120ft 19kts
03-Dec-18 15:42 36.078254 -115.129154 90 2120ft 22kts
03-Dec-18 15:43 36.077668 -115.121862 130 2120ft 12kts
03-Dec-18 15:44 36.077336 -115.121406 149 2120ft 0kts
03-Dec-18 15:45 36.076383 -115.122286 270 2120ft 22kts
03-Dec-18 15:46 36.076206 -115.167343 271 3014ft 183kts
03-Dec-18 15:47 36.076653 -115.239127 275 5869ft 241kts
03-Dec-18 15:48 36.057397 -115.314981 200 8667ft 281kts
03-Dec-18 15:49 35.980816 -115.349966 199 11185ft 326kts
03-Dec-18 15:50 35.885211 -115.375383 167 12808ft 387kts
03-Dec-18 15:51 35.782940 -115.335589 164 14683ft 393kts
03-Dec-18 15:52 35.676088 -115.298511 174 17276ft 407kts
03-Dec-18 15:53 35.561954 -115.299440 184 19481ft 421kts
03-Dec-18 15:54 35.450782 -115.341191 213 20932ft 439kts
03-Dec-18 15:55 35.344735 -115.418681 213 22853ft 424kts
03-Dec-18 15:56 35.246317 -115.490097 214 24423ft 414kts
03-Dec-18 15:57 35.146943 -115.562867 217 26133ft 421kts
03-Dec-18 15:58 35.062379 -115.657865 229 27891ft 417kts
03-Dec-18 15:59 34.981946 -115.760858 229 29353ft 423kts
03-Dec-18 16:00 34.900070 -115.865141 229 30185ft 434kts
03-Dec-18 16:01 34.819646 -115.966759 228 30192ft 433kts
03-Dec-18 16:02 34.736337 -116.072310 229 30222ft 435kts
03-Dec-18 16:03 34.654315 -116.176649 229 30241ft 411kts
03-Dec-18 16:04 34.575411 -116.276879 229 30206ft 411kts
03-Dec-18 16:05 34.496786 -116.376368 229 30236ft 405kts
03-Dec-18 16:06 34.422317 -116.477892 237 30243ft 402kts
03-Dec-18 16:07 34.368224 -116.595538 245 30174ft 400kts
03-Dec-18 16:08 34.320951 -116.710770 245 30060ft 400kts
03-Dec-18 16:09 34.271137 -116.835013 245 26582ft 420kts
03-Dec-18 16:10 34.220017 -116.962327 247 23215ft 427kts
03-Dec-18 16:11 34.180049 -117.099032 252 18711ft 441kts
03-Dec-18 16:12 34.146042 -117.224226 251 15655ft 382kts
03-Dec-18 16:13 34.112521 -117.344843 251 14252ft 378kts
03-Dec-18 16:14 34.082264 -117.462696 253 12798ft 345kts
03-Dec-18 16:15 34.049275 -117.565433 247 11956ft 324kts
03-Dec-18 16:16 34.013663 -117.664586 248 11956ft 313kts
03-Dec-18 16:18 33.999630 -117.759488 263 11421ft 278kts
03-Dec-18 16:19 33.990775 -117.850067 263 9236ft 268kts
03-Dec-18 16:20 33.982481 -117.934953 262 7743ft 239kts
03-Dec-18 16:21 33.974652 -118.014018 262 6112ft 226kts
03-Dec-18 16:22 33.968248 -118.081618 262 4972ft 178kts
03-Dec-18 16:23 33.962642 -118.139992 261 4056ft 174kts
03-Dec-18 16:24 33.957397 -118.190956 261 3199ft 138kts
03-Dec-18 16:25 33.952657 -118.235440 262 2523ft 131kts
03-Dec-18 16:26 33.948123 -118.278582 262 1841ft 129kts
03-Dec-18 16:27 33.943470 -118.321377 262 1095ft 128kts
03-Dec-18 16:28 33.939253 -118.363684 263 454ft 127kts
03-Dec-18 16:29 33.935698 -118.399002 264 112ft 48kts
03-Dec-18 16:30 33.936153 -118.405283 262 112ft 18kts
03-Dec-18 16:31 33.938535 -118.409199 17 112ft 14kts
03-Dec-18 16:32 33.939150 -118.405604 1 112ft 7kts
03-Dec-18 16:33 33.939661 -118.406027 323 112ft 0kts

Navigation Log

Ident Type
Flight plan parsing failed, navigation log unavailable